createdAt,value
2023-02-23T00:02:20.440Z,28.00
2023-02-23T00:07:24.149Z,28.50
2023-02-23T00:12:27.740Z,33.40
2023-02-23T00:17:32.946Z,31.60
2023-02-23T00:22:36.351Z,29.80
2023-02-23T00:27:44.055Z,30.80
2023-02-23T00:32:48.703Z,28.40
2023-02-23T00:37:52.408Z,29.10
2023-02-23T00:42:57.547Z,30.80
2023-02-23T00:48:02.990Z,31.00
2023-02-23T00:53:06.471Z,28.00
2023-02-23T00:58:10.355Z,29.30
2023-02-23T01:03:13.962Z,29.60
2023-02-23T01:08:18.562Z,28.60
2023-02-23T01:13:23.182Z,28.60
2023-02-23T01:18:27.029Z,28.50
2023-02-23T01:23:32.066Z,27.70
2023-02-23T01:28:35.509Z,29.20
2023-02-23T01:33:39.352Z,28.60
2023-02-23T01:38:42.762Z,30.70
2023-02-23T01:43:57.890Z,29.30
2023-02-23T01:49:03.229Z,29.30
2023-02-23T01:54:10.361Z,32.30
2023-02-23T01:59:17.794Z,30.80
2023-02-23T02:04:24.648Z,32.80
2023-02-23T02:09:28.353Z,30.00
2023-02-23T02:14:32.813Z,31.20
2023-02-23T02:20:30.672Z,30.70
2023-02-23T02:25:54.861Z,29.50
2023-02-23T02:31:35.667Z,29.90
2023-02-23T02:37:00.081Z,28.60
2023-02-23T02:42:17.352Z,27.60
2023-02-23T02:47:29.168Z,29.90
2023-02-23T02:52:39.726Z,29.80
2023-02-23T02:57:47.489Z,28.60
2023-02-23T03:03:09.538Z,31.70
2023-02-23T03:08:39.269Z,37.00
2023-02-23T03:14:13.692Z,31.80
2023-02-23T03:19:42.914Z,33.50
2023-02-23T03:25:12.664Z,30.90
2023-02-23T03:30:41.741Z,35.80
2023-02-23T03:36:10.636Z,34.40
2023-02-23T03:41:35.755Z,33.40
2023-02-23T03:46:59.517Z,34.20
2023-02-23T03:52:27.404Z,33.40
2023-02-23T03:57:53.355Z,33.60
2023-02-23T04:03:17.785Z,34.30
2023-02-23T04:08:43.598Z,38.20
2023-02-23T04:13:53.843Z,33.90
2023-02-23T04:18:57.282Z,36.40
2023-02-23T04:24:00.696Z,35.80
2023-02-23T04:29:04.164Z,37.40
2023-02-23T04:34:07.691Z,37.90
2023-02-23T04:39:11.145Z,33.30
2023-02-23T04:44:14.513Z,38.10
2023-02-23T04:49:17.960Z,36.80
2023-02-23T04:54:21.352Z,37.40
2023-02-23T04:59:24.904Z,37.30
2023-02-23T05:04:28.412Z,34.80
2023-02-23T05:09:32.747Z,35.60
2023-02-23T05:14:36.328Z,34.00
2023-02-23T05:19:39.740Z,34.70
2023-02-23T05:24:43.468Z,34.40
2023-02-23T05:29:46.878Z,35.30
2023-02-23T05:34:50.254Z,35.60
2023-02-23T05:39:53.747Z,36.60
2023-02-23T05:44:57.181Z,35.70
2023-02-23T05:50:00.746Z,37.40
2023-02-23T05:55:05.089Z,36.50
2023-02-23T06:00:11.381Z,36.20
2023-02-23T06:05:14.979Z,37.70
2023-02-23T06:10:18.940Z,39.40
2023-02-23T06:15:22.384Z,35.50
2023-02-23T06:20:26.121Z,41.50
2023-02-23T06:25:29.787Z,39.50
2023-02-23T06:30:33.193Z,39.20
2023-02-23T06:35:36.590Z,42.90
2023-02-23T06:40:40.895Z,40.00
2023-02-23T06:45:45.781Z,41.60
2023-02-23T06:50:49.332Z,43.30
2023-02-23T06:55:52.763Z,42.80
2023-02-23T07:00:56.751Z,41.50
2023-02-23T07:06:00.182Z,41.20
2023-02-23T07:11:08.976Z,43.50
2023-02-23T07:16:14.399Z,41.80
2023-02-23T07:21:18.333Z,43.30
2023-02-23T07:26:22.060Z,42.80
2023-02-23T07:31:26.025Z,40.40
2023-02-23T07:36:29.563Z,45.40
2023-02-23T07:41:33.046Z,43.00
2023-02-23T07:46:37.040Z,41.30
2023-02-23T07:51:41.508Z,41.20
2023-02-23T07:56:44.852Z,40.60
2023-02-23T08:01:48.434Z,39.90
2023-02-23T08:06:51.761Z,41.60
2023-02-23T08:11:55.158Z,40.40
2023-02-23T08:17:01.018Z,39.70
2023-02-23T08:22:04.825Z,41.10
2023-02-23T08:27:08.246Z,39.90
2023-02-23T08:32:11.836Z,41.20
2023-02-23T08:37:15.502Z,42.40
2023-02-23T08:42:46.537Z,40.70
2023-02-23T08:48:07.272Z,43.20
2023-02-23T08:53:11.238Z,51.90
2023-02-23T08:58:14.687Z,57.10
2023-02-23T09:03:18.378Z,64.60
2023-02-23T09:08:22.287Z,38.20
2023-02-23T09:13:25.714Z,39.10
2023-02-23T09:18:30.078Z,37.80
2023-02-23T09:23:34.195Z,39.40
2023-02-23T09:28:39.209Z,39.40
2023-02-23T09:33:42.822Z,76.40
2023-02-23T09:38:49.276Z,61.50
2023-02-23T09:44:01.564Z,62.80
2023-02-23T09:49:12.146Z,57.00
2023-02-23T09:54:18.066Z,44.10
2023-02-23T09:59:22.354Z,38.50
2023-02-23T10:04:30.251Z,43.70
2023-02-23T10:09:54.598Z,39.10
2023-02-23T10:15:12.162Z,51.00
2023-02-23T10:20:25.444Z,116.60
2023-02-23T10:25:33.975Z,48.30
2023-02-23T10:30:39.722Z,42.30
2023-02-23T10:35:44.523Z,41.00
2023-02-23T10:40:56.156Z,42.70
2023-02-23T10:45:59.624Z,60.10
2023-02-23T10:51:03.899Z,40.20
2023-02-23T10:56:10.662Z,31.80
2023-02-23T11:01:16.868Z,30.40
2023-02-23T11:06:32.039Z,28.90
2023-02-23T11:11:35.498Z,33.00
2023-02-23T11:16:39.677Z,29.90
2023-02-23T11:21:51.537Z,30.90
2023-02-23T11:32:09.576Z,28.80
2023-02-23T11:37:21.063Z,31.00
2023-02-23T11:42:26.569Z,28.30
2023-02-23T11:47:31.757Z,29.80
2023-02-23T11:52:35.878Z,29.00
2023-02-23T11:57:39.258Z,30.20
2023-02-23T12:02:51.033Z,30.80
2023-02-23T12:08:01.123Z,30.50
2023-02-23T12:13:18.902Z,30.50
2023-02-23T12:18:37.812Z,29.10
2023-02-23T12:23:46.020Z,29.20
2023-02-23T12:28:58.110Z,30.70
2023-02-23T12:34:05.006Z,27.20
2023-02-23T12:39:21.222Z,26.80
2023-02-23T12:44:37.023Z,26.60
2023-02-23T12:49:44.551Z,27.60
2023-02-23T12:54:48.323Z,27.70
2023-02-23T13:00:30.250Z,26.00
2023-02-23T13:05:39.330Z,26.30
2023-02-23T13:10:51.458Z,26.90
2023-02-23T13:16:03.086Z,25.00
2023-02-23T13:21:14.714Z,26.10
2023-02-23T13:26:30.494Z,27.90
2023-02-23T13:31:36.787Z,24.90
2023-02-23T13:36:42.364Z,25.40
2023-02-23T13:41:51.325Z,27.50
2023-02-23T13:47:00.460Z,27.70
2023-02-23T13:52:14.110Z,25.10
2023-02-23T13:57:17.586Z,26.40
2023-02-23T14:02:34.352Z,25.30
2023-02-23T14:07:43.405Z,25.20
2023-02-23T14:13:06.498Z,24.10
2023-02-23T14:18:29.838Z,24.00
2023-02-23T14:23:48.630Z,26.60
2023-02-23T14:29:35.345Z,23.80
2023-02-23T14:34:48.291Z,27.80
2023-02-23T14:39:53.868Z,26.00
2023-02-23T14:45:03.785Z,23.20
2023-02-23T14:50:16.769Z,25.20
2023-02-23T14:55:23.781Z,24.30
2023-02-23T15:00:31.774Z,24.50
2023-02-23T15:05:41.962Z,24.40
2023-02-23T15:10:47.912Z,24.40
2023-02-23T15:15:51.450Z,23.90
2023-02-23T15:20:55.135Z,24.80
2023-02-23T15:25:59.107Z,24.20
2023-02-23T15:31:04.044Z,24.30
2023-02-23T15:36:09.781Z,25.20
2023-02-23T15:41:29.184Z,25.60
2023-02-23T15:46:35.005Z,31.10
2023-02-23T15:51:43.856Z,32.30
2023-02-23T15:56:50.672Z,28.30
2023-02-23T16:01:54.476Z,29.20
2023-02-23T16:07:14.923Z,27.90
2023-02-23T16:12:22.315Z,27.00
2023-02-23T16:17:31.129Z,29.20
2023-02-23T16:22:36.143Z,27.80
2023-02-23T16:27:41.751Z,27.00
2023-02-23T16:32:45.389Z,28.50
2023-02-23T16:37:57.795Z,28.00
2023-02-23T16:43:02.129Z,29.10
2023-02-23T16:48:10.884Z,32.10
2023-02-23T16:53:14.686Z,30.20
2023-02-23T16:58:20.776Z,31.50
2023-02-23T17:03:26.620Z,39.00
2023-02-23T17:08:31.100Z,48.10
2023-02-23T17:13:35.495Z,41.80
2023-02-23T17:18:42.808Z,39.80
2023-02-23T17:23:50.226Z,38.00
2023-02-23T17:28:53.928Z,39.60
2023-02-23T17:33:57.712Z,38.70
2023-02-23T17:39:01.823Z,39.00
2023-02-23T17:44:05.514Z,40.30
2023-02-23T17:49:08.976Z,41.60
2023-02-23T17:54:12.387Z,45.60
2023-02-23T17:59:15.743Z,48.80
2023-02-23T18:04:19.107Z,47.00
2023-02-23T18:09:22.648Z,48.90
2023-02-23T18:14:26.124Z,48.20
2023-02-23T18:19:30.344Z,45.30
2023-02-23T18:24:35.642Z,50.70
2023-02-23T18:29:39.414Z,61.10
2023-02-23T18:34:42.895Z,53.80
2023-02-23T18:39:51.500Z,54.30
2023-02-23T18:44:55.008Z,51.50
2023-02-23T18:50:01.199Z,54.70
2023-02-23T18:55:06.739Z,51.80
2023-02-23T19:00:13.429Z,50.10
2023-02-23T19:05:18.494Z,50.50
2023-02-23T19:10:23.004Z,61.20
2023-02-23T19:15:26.414Z,50.10
2023-02-23T19:20:35.018Z,45.70
2023-02-23T19:25:38.801Z,56.20
2023-02-23T19:30:45.062Z,57.40
2023-02-23T19:35:49.685Z,63.70
2023-02-23T19:40:53.286Z,65.60
2023-02-23T19:46:01.960Z,59.30
2023-02-23T19:51:09.581Z,61.00
2023-02-23T19:56:15.894Z,65.60
2023-02-23T20:01:22.378Z,60.80
2023-02-23T20:06:29.959Z,58.30
2023-02-23T20:11:33.383Z,64.10
2023-02-23T20:16:37.035Z,58.20
2023-02-23T20:21:41.407Z,63.00
2023-02-23T20:26:45.862Z,63.40
2023-02-23T20:31:51.016Z,59.90
2023-02-23T20:36:55.204Z,56.70
2023-02-23T20:41:58.661Z,56.20
2023-02-23T20:47:02.110Z,67.60
2023-02-23T20:52:05.950Z,66.30
2023-02-23T20:57:09.435Z,66.40
2023-02-23T21:02:14.743Z,70.00
2023-02-23T21:07:21.636Z,70.90
2023-02-23T21:12:25.851Z,57.90
2023-02-23T21:17:29.345Z,54.90
2023-02-23T21:22:33.067Z,45.20
2023-02-23T21:27:36.669Z,49.90
2023-02-23T21:32:40.891Z,48.70
2023-02-23T21:37:44.329Z,48.20
2023-02-23T21:42:48.962Z,46.00
2023-02-23T21:47:52.395Z,46.60
2023-02-23T21:52:57.603Z,50.90
2023-02-23T21:58:01.327Z,51.60
2023-02-23T22:03:05.031Z,58.90
2023-02-23T22:08:08.529Z,59.10
2023-02-23T22:13:11.867Z,56.10
2023-02-23T22:18:15.479Z,50.40
2023-02-23T22:23:18.838Z,60.50
2023-02-23T22:28:22.236Z,52.40
2023-02-23T22:33:25.714Z,53.30
2023-02-23T22:38:30.102Z,51.90
2023-02-23T22:43:33.834Z,52.10
2023-02-23T22:48:37.530Z,52.40
2023-02-23T22:53:41.425Z,55.60
2023-02-23T22:58:45.218Z,51.70
2023-02-23T23:03:48.769Z,52.90
2023-02-23T23:08:55.059Z,52.50
2023-02-23T23:14:01.342Z,52.80
2023-02-23T23:19:07.367Z,55.60
2023-02-23T23:24:12.920Z,51.20
2023-02-23T23:29:17.350Z,51.90
2023-02-23T23:34:21.080Z,53.40
2023-02-23T23:39:25.677Z,52.30
2023-02-23T23:44:29.615Z,52.30
2023-02-23T23:49:37.102Z,52.50
2023-02-23T23:54:42.175Z,52.10
2023-02-23T23:59:46.811Z,53.50
